Time;durP1;ratioP1;P1;durP2;ratioP2;P2;SDS_P1;SDS_P2;PMS_P1;PMS_P2;Temp;Humidity;BMP_temperature;BMP_pressure;BME280_temperature;BME280_humidity;BME280_pressure;Samples;Min_cycle;Max_cycle;Signal;HPM_P1;HPM_P2
2023/03/30 00:01:16;;;;;;;22.95;19.38;;;;;;;7.28;98.23;149131.72;5024322;28;20026;-65
2023/03/30 00:03:43;;;;;;;22.25;19.50;;;;;;;7.47;97.99;149177.78;5024963;28;20104;-67
2023/03/30 00:06:10;;;;;;;26.95;20.88;;;;;;;7.40;97.49;149161.19;5024980;28;20219;-65
2023/03/30 00:08:36;;;;;;;24.15;19.10;;;;;;;7.44;96.51;149171.41;5025052;28;20049;-64
2023/03/30 00:11:12;;;;;;;24.42;19.60;;;;;;;7.64;96.08;149220.00;5025137;28;20060;-65
2023/03/30 00:13:38;;;;;;;28.33;21.13;;;;;;;7.66;96.55;149226.41;5024874;28;20051;-65
2023/03/30 00:16:06;;;;;;;26.23;21.85;;;;;;;7.60;95.67;149212.34;5024378;28;20064;-64
2023/03/30 00:18:33;;;;;;;26.83;22.25;;;;;;;7.67;95.26;149228.97;5024306;28;20037;-64
2023/03/30 00:21:01;;;;;;;26.52;21.73;;;;;;;7.65;95.61;149222.56;5024900;28;20053;-65
2023/03/30 00:23:27;;;;;;;26.20;20.90;;;;;;;7.73;96.18;149243.06;5007325;28;20062;-65
2023/03/30 00:25:53;;;;;;;28.15;22.42;;;;;;;7.72;94.85;149240.47;5024775;28;20033;-66
2023/03/30 00:28:19;;;;;;;26.83;21.60;;;;;;;7.68;94.75;149230.25;5024408;28;20038;-64
2023/03/30 00:30:46;;;;;;;29.67;22.85;;;;;;;7.45;95.69;149173.94;5024861;28;20073;-65
2023/03/30 00:33:12;;;;;;;26.95;21.52;;;;;;;7.65;95.72;149223.84;5024707;28;20030;-64
2023/03/30 00:35:38;;;;;;;31.00;24.77;;;;;;;7.50;95.32;149185.50;5024792;28;20041;-64
2023/03/30 00:38:04;;;;;;;31.30;24.10;;;;;;;7.44;96.73;149171.41;5023983;28;20100;-64
2023/03/30 00:40:32;;;;;;;31.25;25.00;;;;;;;7.36;96.84;149152.19;5024945;28;20303;-65
2023/03/30 00:43:03;;;;;;;33.30;24.95;;;;;;;7.41;95.95;149163.69;5024650;28;20140;-66
2023/03/30 00:45:33;;;;;;;33.95;26.00;;;;;;;7.39;95.57;149158.59;5024655;28;20029;-66
2023/03/30 00:48:26;;;;;;;27.70;22.45;;;;;;;7.64;96.02;149221.31;5023737;28;20033;-67
2023/03/30 00:51:06;;;;;;;27.55;21.60;;;;;;;7.65;96.03;149222.56;5024520;28;20214;-66
2023/03/30 00:53:37;;;;;;;31.65;22.83;;;;;;;7.73;95.58;149243.06;5024405;28;20207;-65
2023/03/30 00:56:06;;;;;;;33.33;23.73;;;;;;;7.71;94.76;149239.22;5024251;28;20032;-65
2023/03/30 00:58:32;;;;;;;29.52;23.58;;;;;;;7.58;95.01;149205.94;5024067;28;20030;-66
2023/03/30 01:01:00;;;;;;;31.58;24.23;;;;;;;7.63;94.70;149218.75;5024558;28;20030;-66
2023/03/30 01:03:33;;;;;;;32.83;24.60;;;;;;;7.41;96.15;149163.69;5024088;28;20475;-65
2023/03/30 01:06:02;;;;;;;32.45;25.33;;;;;;;7.42;95.61;149166.28;5024137;28;20081;-64
2023/03/30 01:08:31;;;;;;;34.00;24.08;;;;;;;7.53;95.17;149193.16;5023646;28;20034;-65
2023/03/30 01:11:00;;;;;;;30.02;22.77;;;;;;;7.65;95.35;149222.56;5024309;28;20057;-64
2023/03/30 01:13:27;;;;;;;36.22;25.90;;;;;;;7.62;94.63;149214.91;5023950;28;20029;-64
2023/03/30 01:16:00;;;;;;;29.92;22.35;;;;;;;7.73;94.39;149243.06;5023922;28;20036;-63
2023/03/30 01:18:37;;;;;;;31.90;26.10;;;;;;;7.53;95.67;149194.44;5023374;28;20048;-65
2023/03/30 01:21:24;;;;;;;37.75;26.98;;;;;;;7.52;94.91;149190.59;5006457;28;20030;-65
2023/03/30 01:24:19;;;;;;;32.50;24.85;;;;;;;7.60;94.78;149211.06;5023188;28;20042;-66
2023/03/30 01:26:52;;;;;;;35.67;26.55;;;;;;;7.23;96.07;149118.97;5023787;28;20022;-66
2023/03/30 01:29:32;;;;;;;36.45;26.45;;;;;;;7.35;96.28;149149.63;5023447;28;20093;-66
2023/03/30 01:32:11;;;;;;;35.15;26.92;;;;;;;7.20;96.93;149112.56;5023491;28;20030;-65
2023/03/30 01:35:10;;;;;;;37.67;28.80;;;;;;;7.33;97.13;149144.53;5023612;28;20056;-64
2023/03/30 01:37:45;;;;;;;37.47;27.00;;;;;;;7.38;96.84;149157.34;5022479;28;20057;-65
2023/03/30 01:40:15;;;;;;;35.22;26.42;;;;;;;7.47;96.28;149177.78;5022540;28;20041;-63
2023/03/30 01:43:18;;;;;;;31.85;24.92;;;;;;;7.61;95.38;149213.66;5023497;28;20025;-64
2023/03/30 01:45:57;;;;;;;38.80;27.60;;;;;;;7.46;95.27;149175.25;5009613;28;20283;-64
2023/03/30 01:48:32;;;;;;;37.55;26.95;;;;;;;7.28;95.25;149130.47;5016300;28;20037;-64
2023/03/30 01:51:12;;;;;;;36.42;26.63;;;;;;;7.46;95.91;149176.50;5022007;28;20249;-63
2023/03/30 01:53:37;;;;;;;34.10;25.58;;;;;;;7.57;95.89;149203.41;5023157;28;20218;-65
2023/03/30 01:56:46;;;;;;;36.72;25.42;;;;;;;7.65;95.23;149223.84;5023195;28;20052;-65
2023/03/30 01:59:33;;;;;;;35.67;25.88;;;;;;;7.63;94.90;149218.75;5002825;28;20131;-64
2023/03/30 02:02:02;;;;;;;38.03;27.35;;;;;;;7.47;95.55;149179.09;5023126;28;20037;-66
2023/03/30 02:04:32;;;;;;;36.10;26.88;;;;;;;7.62;95.34;149214.91;5021395;28;20041;-66
2023/03/30 02:07:03;;;;;;;41.28;29.33;;;;;;;7.59;95.52;149208.50;5022951;28;20314;-66
2023/03/30 02:09:31;;;;;;;43.47;28.05;;;;;;;7.66;95.04;149226.41;5023105;28;20036;-66
2023/03/30 02:11:59;;;;;;;35.95;27.27;;;;;;;7.75;94.54;149249.47;5022475;28;20042;-66
2023/03/30 02:14:28;;;;;;;38.95;29.35;;;;;;;7.76;94.68;149250.72;5022357;28;20088;-66
2023/03/30 02:17:21;;;;;;;33.80;25.27;;;;;;;7.72;95.29;149241.75;5008112;28;20109;-66
2023/03/30 02:19:48;;;;;;;37.35;27.90;;;;;;;7.71;94.57;149237.91;5022778;28;20362;-67
2023/03/30 02:22:16;;;;;;;29.10;22.45;;;;;;;7.66;93.64;149226.41;5022311;28;20472;-67
2023/03/30 02:24:45;;;;;;;23.80;18.35;;;;;;;7.59;92.68;149209.75;5022492;28;20049;-66
2023/03/30 02:27:11;;;;;;;22.25;17.15;;;;;;;7.71;92.65;149239.22;5022516;28;20045;-66
2023/03/30 02:29:42;;;;;;;20.08;16.20;;;;;;;7.75;92.09;149248.16;5022673;28;20057;-65
2023/03/30 02:32:17;;;;;;;20.98;16.23;;;;;;;7.72;91.55;149241.75;5021610;28;20033;-66
2023/03/30 02:35:10;;;;;;;17.10;13.82;;;;;;;7.78;90.27;149255.81;5022521;28;20034;-66
2023/03/30 02:37:55;;;;;;;15.15;12.18;;;;;;;7.77;89.42;149254.56;5022583;28;20104;-65
2023/03/30 02:40:42;;;;;;;14.15;11.35;;;;;;;7.74;88.32;149246.88;5001792;28;20049;-65
2023/03/30 02:43:07;;;;;;;13.07;11.63;;;;;;;7.74;89.03;149246.88;5021644;28;20104;-66
2023/03/30 02:45:48;;;;;;;12.07;10.52;;;;;;;7.73;88.16;149244.31;5022431;28;20069;-67
2023/03/30 02:48:31;;;;;;;11.52;10.32;;;;;;;7.60;87.06;149211.06;5013396;28;20072;-66
2023/03/30 02:51:37;;;;;;;15.75;10.63;;;;;;;7.61;87.20;149213.66;5021937;28;20025;-67
2023/03/30 02:54:09;;;;;;;11.15;9.93;;;;;;;7.51;87.13;149188.00;5021645;28;20083;-66
2023/03/30 02:56:47;;;;;;;10.30;8.73;;;;;;;7.55;86.52;149198.25;5021897;28;20041;-66
2023/03/30 02:59:27;;;;;;;10.20;9.13;;;;;;;7.55;86.75;149198.25;5022085;28;20034;-63
2023/03/30 03:02:06;;;;;;;12.35;9.65;;;;;;;7.56;85.46;149200.84;5022099;28;20102;-63
2023/03/30 03:04:33;;;;;;;11.98;8.32;;;;;;;7.49;85.23;149182.91;5022773;28;20026;-63
2023/03/30 03:07:01;;;;;;;10.95;7.80;;;;;;;7.44;84.80;149171.41;5022023;28;20042;-62
2023/03/30 03:09:28;;;;;;;10.38;7.93;;;;;;;7.43;82.93;149170.09;5021873;28;20045;-62
2023/03/30 03:11:54;;;;;;;9.15;8.00;;;;;;;7.45;84.60;149172.69;5022129;28;20049;-64
2023/03/30 03:14:20;;;;;;;9.30;7.47;;;;;;;7.47;83.49;149177.78;5003929;28;20233;-63
2023/03/30 03:16:46;;;;;;;14.45;7.68;;;;;;;7.49;84.53;149182.91;5022221;28;20053;-63
2023/03/30 03:19:12;;;;;;;9.70;7.47;;;;;;;7.43;82.63;149168.84;5022044;28;20057;-64
2023/03/30 03:21:37;;;;;;;8.73;7.28;;;;;;;7.50;83.09;149185.50;5021650;28;20049;-63
2023/03/30 03:24:05;;;;;;;8.85;7.85;;;;;;;7.45;83.30;149172.69;5004113;28;20080;-63
2023/03/30 03:26:31;;;;;;;10.73;7.82;;;;;;;7.32;82.86;149140.69;5021978;28;20093;-63
2023/03/30 03:28:56;;;;;;;8.85;7.45;;;;;;;7.47;81.93;149179.09;5022137;28;20038;-62
2023/03/30 03:31:23;;;;;;;10.57;8.05;;;;;;;7.45;82.45;149173.94;5021730;28;20029;-63
2023/03/30 03:33:49;;;;;;;10.48;8.27;;;;;;;7.47;82.33;149177.78;5021761;28;20038;-64
2023/03/30 03:36:15;;;;;;;9.07;7.78;;;;;;;7.47;82.01;149179.09;5021580;28;20025;-63
2023/03/30 03:38:41;;;;;;;8.52;7.47;;;;;;;7.42;82.02;149166.28;5004384;28;20373;-62
2023/03/30 03:41:08;;;;;;;10.10;7.90;;;;;;;7.51;82.99;149188.00;5021931;28;20093;-63
2023/03/30 03:43:34;;;;;;;8.95;8.02;;;;;;;7.40;82.04;149161.19;5022204;28;20030;-64
2023/03/30 03:45:59;;;;;;;9.57;7.60;;;;;;;7.47;83.02;149177.78;5021441;28;20041;-63
2023/03/30 03:48:25;;;;;;;10.45;8.20;;;;;;;7.40;81.96;149162.44;5004096;28;20046;-63
2023/03/30 03:50:54;;;;;;;9.30;8.27;;;;;;;7.36;81.46;149152.19;5021498;28;20048;-63
2023/03/30 03:53:20;;;;;;;9.18;8.27;;;;;;;7.42;82.49;149166.28;5020456;28;20026;-62
2023/03/30 03:55:46;;;;;;;10.98;8.93;;;;;;;7.47;81.90;149177.78;5021770;28;20030;-63
2023/03/30 03:58:13;;;;;;;13.48;9.35;;;;;;;7.34;82.78;149145.78;5020910;28;20037;-61
2023/03/30 04:00:39;;;;;;;11.38;9.68;;;;;;;7.40;84.32;149161.19;5022848;28;20475;-62
2023/03/30 04:03:06;;;;;;;13.48;10.90;;;;;;;7.47;83.89;149177.78;5024432;28;20064;-62
2023/03/30 04:05:32;;;;;;;11.57;10.38;;;;;;;7.41;84.73;149165.00;5024723;28;20053;-63
2023/03/30 04:07:58;;;;;;;12.63;11.25;;;;;;;7.44;85.35;149171.41;5024397;28;20026;-64
2023/03/30 04:10:24;;;;;;;11.93;10.55;;;;;;;7.48;84.36;149180.34;5024101;28;20092;-64
2023/03/30 04:12:49;;;;;;;12.18;10.73;;;;;;;7.44;85.44;149171.41;5023635;28;20340;-64
2023/03/30 04:15:15;;;;;;;13.25;10.68;;;;;;;7.41;85.24;149165.00;5024306;28;20199;-65
2023/03/30 04:17:43;;;;;;;11.45;9.98;;;;;;;7.33;86.14;149143.28;5007005;28;20025;-65
2023/03/30 04:20:12;;;;;;;11.95;10.15;;;;;;;7.25;86.31;149125.38;5024705;28;20037;-65
2023/03/30 04:22:40;;;;;;;14.75;10.52;;;;;;;7.29;86.36;149134.28;5025023;28;20026;-64
2023/03/30 04:25:13;;;;;;;12.60;10.43;;;;;;;7.30;85.89;149136.88;5007422;28;20022;-64
2023/03/30 04:27:43;;;;;;;13.45;10.02;;;;;;;7.31;85.12;149139.44;5007423;28;20310;-65
2023/03/30 04:30:10;;;;;;;10.40;9.30;;;;;;;7.41;84.71;149163.69;5024523;28;20029;-63
2023/03/30 04:32:40;;;;;;;10.57;8.65;;;;;;;7.23;83.28;149118.97;5024274;28;20084;-64
2023/03/30 04:35:07;;;;;;;10.15;9.07;;;;;;;7.28;83.56;149131.72;5024277;28;20065;-64
2023/03/30 04:37:34;;;;;;;10.52;9.18;;;;;;;7.32;84.36;149141.97;5024523;28;20022;-64
2023/03/30 04:40:01;;;;;;;9.90;7.82;;;;;;;7.28;83.43;149131.72;5024737;28;20061;-64
2023/03/30 04:42:29;;;;;;;11.27;8.18;;;;;;;7.19;81.84;149108.72;5024056;28;20048;-64
2023/03/30 04:44:58;;;;;;;12.88;8.35;;;;;;;7.13;81.40;149093.41;5023629;28;20311;-66
2023/03/30 04:47:26;;;;;;;10.00;7.88;;;;;;;7.17;82.45;149103.59;5006983;28;20137;-63
2023/03/30 04:49:51;;;;;;;9.60;8.60;;;;;;;7.24;82.65;149121.53;5024628;28;20392;-65
2023/03/30 04:52:17;;;;;;;10.57;7.68;;;;;;;7.36;82.28;149150.94;5006947;28;20029;-65
2023/03/30 04:54:43;;;;;;;9.05;7.45;;;;;;;7.33;81.09;149143.28;5023970;28;20037;-65
2023/03/30 04:57:09;;;;;;;11.50;7.93;;;;;;;7.39;82.67;149158.59;5006647;28;20032;-64
2023/03/30 04:59:35;;;;;;;8.90;7.65;;;;;;;7.40;81.04;149161.19;5024601;28;20033;-64
2023/03/30 05:02:02;;;;;;;8.98;6.97;;;;;;;7.36;80.32;149152.19;5023873;28;20137;-64
2023/03/30 05:04:28;;;;;;;9.27;7.60;;;;;;;7.37;80.29;149153.50;5024354;28;20030;-65
2023/03/30 05:06:54;;;;;;;10.07;7.88;;;;;;;7.35;79.29;149148.38;5024121;28;20041;-65
2023/03/30 05:09:20;;;;;;;11.40;8.00;;;;;;;7.38;80.42;149157.34;5024183;28;20037;-65
2023/03/30 05:11:46;;;;;;;9.23;6.45;;;;;;;7.14;79.95;149095.91;5015503;28;20058;-65
2023/03/30 05:14:11;;;;;;;6.95;5.70;;;;;;;7.22;79.57;149117.66;5006599;28;20026;-65
2023/03/30 05:16:37;;;;;;;7.00;5.85;;;;;;;7.23;79.19;149118.97;5024152;28;20033;-65
2023/03/30 05:19:02;;;;;;;8.48;5.82;;;;;;;7.22;78.80;149116.38;5023331;28;20065;-66
2023/03/30 05:21:30;;;;;;;6.38;4.82;;;;;;;7.30;78.09;149135.59;5023497;28;20049;-65
2023/03/30 05:23:56;;;;;;;6.40;5.07;;;;;;;7.26;78.76;149126.63;5023849;28;20314;-64
2023/03/30 05:26:22;;;;;;;4.88;4.38;;;;;;;7.17;78.23;149103.59;5022927;28;20037;-64
2023/03/30 05:28:48;;;;;;;5.95;4.40;;;;;;;7.08;76.94;149083.16;5023466;28;20041;-65
2023/03/30 05:31:14;;;;;;;7.43;4.53;;;;;;;7.27;77.53;149129.19;5017906;28;20068;-64
2023/03/30 05:33:40;;;;;;;5.57;4.53;;;;;;;7.15;77.61;149098.50;5000406;28;20233;-64
2023/03/30 05:36:06;;;;;;;5.57;4.70;;;;;;;7.15;78.50;149099.75;5023066;28;20175;-64
2023/03/30 05:38:31;;;;;;;5.30;4.80;;;;;;;7.16;77.11;149102.31;5023260;28;20030;-65
2023/03/30 05:40:57;;;;;;;5.15;4.47;;;;;;;7.23;76.79;149120.22;5023743;28;20021;-65
2023/03/30 05:43:23;;;;;;;7.10;4.97;;;;;;;7.31;76.90;149139.44;5022840;28;20326;-63
2023/03/30 05:45:49;;;;;;;5.70;4.90;;;;;;;7.43;76.34;149168.84;5023399;28;20030;-64
2023/03/30 05:48:14;;;;;;;7.53;5.40;;;;;;;7.47;76.55;149179.09;5023567;28;20322;-64
2023/03/30 05:50:41;;;;;;;5.72;4.63;;;;;;;7.51;78.08;149189.31;5017630;28;20057;-64
2023/03/30 05:53:07;;;;;;;5.40;4.57;;;;;;;7.40;77.01;149162.44;5004827;28;20030;-64
2023/03/30 05:55:33;;;;;;;5.18;4.40;;;;;;;7.45;76.71;149172.69;5022943;28;20064;-64
2023/03/30 05:57:59;;;;;;;7.25;4.20;;;;;;;7.42;74.78;149166.28;5023177;28;20109;-66
2023/03/30 06:00:25;;;;;;;4.78;4.07;;;;;;;7.51;74.48;149189.31;5005670;28;20706;-65
2023/03/30 06:02:51;;;;;;;5.10;4.53;;;;;;;7.56;75.05;149200.84;5005125;28;20030;-63
2023/03/30 06:05:17;;;;;;;5.05;4.35;;;;;;;7.50;75.66;149185.50;5022485;28;20034;-63
2023/03/30 06:07:44;;;;;;;4.80;4.40;;;;;;;7.57;73.84;149203.41;5021616;28;20096;-65
2023/03/30 06:10:11;;;;;;;5.20;4.40;;;;;;;7.48;72.92;149181.66;5022752;28;20101;-65
2023/03/30 06:12:38;;;;;;;4.70;4.30;;;;;;;7.50;73.31;149185.50;5022925;28;20026;-65
2023/03/30 06:15:07;;;;;;;5.05;4.55;;;;;;;7.53;72.67;149193.16;5022698;28;20026;-64
2023/03/30 06:17:33;;;;;;;6.68;4.50;;;;;;;7.50;72.37;149185.50;5018141;28;20030;-65
2023/03/30 06:19:58;;;;;;;5.97;4.78;;;;;;;7.65;72.46;149223.84;5002466;28;20041;-65
2023/03/30 06:22:24;;;;;;;7.28;4.95;;;;;;;7.48;71.31;149180.34;5002736;28;20026;-64
2023/03/30 06:24:50;;;;;;;5.03;4.53;;;;;;;7.53;72.98;149194.44;5018051;28;20033;-65
2023/03/30 06:27:16;;;;;;;4.88;4.15;;;;;;;7.53;72.79;149193.16;5021983;28;20099;-64
2023/03/30 06:29:42;;;;;;;7.45;4.93;;;;;;;7.43;71.88;149170.09;5022122;28;20037;-65
2023/03/30 06:32:08;;;;;;;4.22;3.83;;;;;;;7.51;71.80;149188.00;5021907;28;20025;-64
2023/03/30 06:34:33;;;;;;;5.53;4.63;;;;;;;7.43;72.33;149168.84;5022302;28;20089;-64
2023/03/30 06:37:00;;;;;;;5.05;4.55;;;;;;;7.43;71.04;149170.09;5022149;28;20220;-64
2023/03/30 06:39:25;;;;;;;6.00;4.18;;;;;;;7.51;71.68;149188.00;5022423;28;20080;-64
2023/03/30 06:41:51;;;;;;;4.03;3.63;;;;;;;7.40;70.58;149162.44;5021812;28;20092;-63
2023/03/30 06:44:17;;;;;;;5.88;3.85;;;;;;;7.22;69.39;149116.38;5022390;28;20021;-64
2023/03/30 06:46:42;;;;;;;4.63;4.10;;;;;;;7.32;70.13;149141.97;5022266;28;20270;-63
2023/03/30 06:49:11;;;;;;;5.57;4.18;;;;;;;7.30;71.02;149136.88;5021694;28;20057;-64
2023/03/30 06:51:37;;;;;;;6.72;4.55;;;;;;;7.43;71.95;149170.09;5022036;28;20032;-63
2023/03/30 06:54:03;;;;;;;5.35;4.28;;;;;;;7.55;71.70;149198.25;5021965;28;20076;-62
2023/03/30 06:56:29;;;;;;;7.93;4.82;;;;;;;7.37;70.64;149154.78;5021558;28;20037;-65
2023/03/30 06:58:56;;;;;;;7.55;5.07;;;;;;;7.51;71.22;149189.31;5022183;28;20034;-63
2023/03/30 07:01:22;;;;;;;5.35;4.35;;;;;;;7.62;70.69;149216.16;5022093;28;20034;-65
2023/03/30 07:03:50;;;;;;;6.57;4.40;;;;;;;7.80;70.58;149259.72;5021457;28;20239;-65
2023/03/30 07:06:16;;;;;;;6.90;4.78;;;;;;;7.85;70.72;149273.78;5021830;28;20038;-65
2023/03/30 07:08:42;;;;;;;7.93;4.32;;;;;;;7.99;71.36;149308.31;5022236;28;20341;-63
2023/03/30 07:11:07;;;;;;;7.72;4.88;;;;;;;7.98;71.16;149305.78;5021233;28;20379;-64
2023/03/30 07:13:33;;;;;;;7.05;4.63;;;;;;;8.05;70.99;149323.69;5021847;28;20117;-64
2023/03/30 07:15:59;;;;;;;5.80;4.15;;;;;;;8.01;68.87;149312.13;5021779;28;20025;-64
2023/03/30 07:18:24;;;;;;;5.53;4.00;;;;;;;8.08;69.44;149330.06;5021698;28;20036;-64
2023/03/30 07:20:50;;;;;;;4.72;3.65;;;;;;;7.93;68.93;149292.97;5021994;28;20034;-64
2023/03/30 07:23:16;;;;;;;6.38;3.97;;;;;;;7.94;68.11;149296.78;5021441;28;20241;-65
2023/03/30 07:25:43;;;;;;;8.50;4.10;;;;;;;7.96;69.59;149300.63;5019844;28;20336;-64
2023/03/30 07:28:09;;;;;;;5.22;4.00;;;;;;;8.03;69.01;149318.53;5021365;28;20030;-65
2023/03/30 07:30:35;;;;;;;7.18;3.90;;;;;;;8.13;69.11;149344.13;5019508;28;20061;-64
2023/03/30 07:33:01;;;;;;;8.23;4.80;;;;;;;8.10;69.64;149335.19;5019881;28;20046;-64
2023/03/30 07:35:27;;;;;;;9.73;4.70;;;;;;;8.07;69.19;149328.78;5022722;28;20030;-65
2023/03/30 07:37:53;;;;;;;5.88;4.43;;;;;;;8.07;68.86;149328.78;5024585;28;20061;-64
2023/03/30 07:40:20;;;;;;;5.80;4.28;;;;;;;8.03;68.98;149317.28;5024834;28;20040;-64
2023/03/30 07:42:46;;;;;;;7.07;4.43;;;;;;;8.04;69.24;149321.13;5025923;28;20025;-65
2023/03/30 07:45:13;;;;;;;8.90;4.57;;;;;;;7.90;68.74;149285.28;5025323;28;20038;-64
2023/03/30 07:47:39;;;;;;;7.80;4.43;;;;;;;7.74;68.96;149246.88;5025491;28;20033;-65
2023/03/30 07:50:05;;;;;;;5.55;4.28;;;;;;;7.98;69.08;149304.47;5025634;28;20491;-64
2023/03/30 07:52:31;;;;;;;6.70;4.55;;;;;;;8.02;69.37;149314.72;5005752;28;20037;-66
2023/03/30 07:54:57;;;;;;;4.95;4.43;;;;;;;8.06;67.39;149324.97;5022652;28;20026;-64
2023/03/30 07:57:23;;;;;;;5.05;4.57;;;;;;;7.88;67.84;149281.47;5025434;28;20030;-65
2023/03/30 07:59:49;;;;;;;5.38;4.40;;;;;;;7.89;68.15;149283.97;5025222;28;20067;-62
2023/03/30 08:02:15;;;;;;;5.00;4.35;;;;;;;7.70;69.03;149236.66;5024666;28;20055;-65
2023/03/30 08:04:42;;;;;;;4.47;3.97;;;;;;;7.91;69.69;149287.88;5025362;28;20038;-66
2023/03/30 08:07:08;;;;;;;6.28;3.90;;;;;;;7.95;68.35;149298.06;5024918;28;20118;-64
2023/03/30 08:09:34;;;;;;;7.88;4.40;;;;;;;7.94;69.38;149295.53;5024775;28;20097;-64
2023/03/30 08:12:00;;;;;;;14.82;4.50;;;;;;;7.94;70.97;149295.53;5025070;28;20042;-65
2023/03/30 08:14:26;;;;;;;6.45;4.45;;;;;;;8.15;70.52;149346.72;5024592;28;20076;-66
2023/03/30 08:16:55;;;;;;;5.78;4.32;;;;;;;8.21;68.42;149363.38;5024695;28;20034;-66
2023/03/30 08:19:23;;;;;;;8.32;4.65;;;;;;;8.17;69.45;149351.84;5025143;28;20318;-66
2023/03/30 08:21:49;;;;;;;7.78;4.13;;;;;;;8.32;68.29;149388.97;5007435;28;20034;-67
2023/03/30 08:24:15;;;;;;;7.40;4.43;;;;;;;8.19;67.45;149356.94;5024497;28;20024;-64
2023/03/30 08:26:42;;;;;;;9.15;4.55;;;;;;;8.33;67.54;149392.78;5024764;28;20030;-68
2023/03/30 08:29:08;;;;;;;5.05;4.30;;;;;;;8.24;68.65;149369.78;5024883;28;20302;-68
2023/03/30 08:31:36;;;;;;;13.65;4.72;;;;;;;8.11;66.87;149337.78;5024244;28;20234;-66
2023/03/30 08:34:03;;;;;;;8.23;3.55;;;;;;;8.17;67.42;149353.13;5024594;28;20045;-66
2023/03/30 08:36:29;;;;;;;6.68;3.95;;;;;;;7.86;67.68;149275.03;5016075;28;20090;-68
2023/03/30 08:38:55;;;;;;;8.68;3.83;;;;;;;8.10;67.06;149335.19;5011533;28;20045;-66
2023/03/30 08:41:23;;;;;;;11.27;4.07;;;;;;;8.02;68.73;149314.72;5024546;28;20030;-66
2023/03/30 08:43:56;;;;;;;5.53;3.85;;;;;;;8.01;66.64;149313.44;5024631;28;20301;-65
2023/03/30 08:46:22;;;;;;;6.82;3.65;;;;;;;7.95;65.66;149298.06;5022991;28;20341;-66
2023/03/30 08:48:49;;;;;;;5.15;3.70;;;;;;;8.05;66.33;149323.69;5024427;28;20037;-66
2023/03/30 08:51:26;;;;;;;6.40;3.90;;;;;;;7.92;65.49;149290.38;5024179;28;20025;-67
2023/03/30 08:54:00;;;;;;;5.40;3.25;;;;;;;7.91;66.52;149287.88;5024277;28;20040;-65
2023/03/30 08:56:38;;;;;;;6.68;3.75;;;;;;;7.69;66.92;149234.06;5024314;28;20025;-66
2023/03/30 08:59:28;;;;;;;7.38;3.92;;;;;;;7.87;67.18;149278.88;5024430;28;20045;-65
2023/03/30 09:02:00;;;;;;;7.15;4.18;;;;;;;7.83;67.58;149268.63;5017452;28;20071;-65
2023/03/30 09:04:44;;;;;;;5.65;4.00;;;;;;;7.84;68.60;149269.91;5006676;28;20097;-65
2023/03/30 09:08:02;;;;;;;6.88;4.00;;;;;;;7.95;69.34;149299.38;5015085;28;20338;-65
2023/03/30 09:10:35;;;;;;;5.38;4.32;;;;;;;7.91;69.85;149287.88;4989205;28;20050;-65
2023/03/30 09:13:04;;;;;;;9.50;4.45;;;;;;;7.89;69.75;149282.72;5019366;28;20030;-66
2023/03/30 09:15:32;;;;;;;7.30;4.97;;;;;;;7.82;69.68;149264.81;5023696;28;20028;-66
2023/03/30 09:18:05;;;;;;;7.32;4.45;;;;;;;7.94;70.05;149295.53;5023862;28;20030;-65
2023/03/30 09:20:36;;;;;;;6.07;4.57;;;;;;;7.67;70.90;149228.97;5023817;28;20072;-65
2023/03/30 09:23:02;;;;;;;9.15;4.55;;;;;;;7.60;71.39;149212.34;5023976;28;20037;-65
2023/03/30 09:25:43;;;;;;;4.38;3.80;;;;;;;7.51;71.12;149188.00;5023594;28;20030;-65
2023/03/30 09:28:47;;;;;;;5.95;4.40;;;;;;;7.52;70.76;149191.84;5023611;28;20218;-65
2023/03/30 09:31:15;;;;;;;10.07;6.05;;;;;;;7.52;71.79;149190.59;5023581;28;20026;-65
2023/03/30 09:33:45;;;;;;;7.03;4.40;;;;;;;7.68;71.32;149231.56;5023739;28;20048;-66
2023/03/30 09:36:36;;;;;;;8.00;4.20;;;;;;;7.62;70.63;149214.91;5023347;28;20097;-65
2023/03/30 09:39:21;;;;;;;7.60;3.60;;;;;;;7.62;70.60;149216.16;5023594;28;20325;-65
2023/03/30 09:42:25;;;;;;;5.40;3.50;;;;;;;7.56;68.10;149202.09;5023505;28;20101;-64
2023/03/30 09:45:07;;;;;;;5.50;3.10;;;;;;;7.61;68.29;149213.66;5023703;28;20072;-66
2023/03/30 09:47:36;;;;;;;;;;;;;;;7.69;69.22;149234.06;5024099;28;20037;-65
2023/03/30 09:50:22;;;;;;;3.83;3.03;;;;;;;7.72;69.32;149241.75;5023408;28;19913;-65
2023/03/30 09:52:58;;;;;;;4.35;2.55;;;;;;;7.31;71.74;149139.44;5020359;28;20030;-65
2023/03/30 09:55:34;;;;;;;2.67;2.10;;;;;;;7.35;73.29;149149.63;5022828;28;20049;-65
2023/03/30 09:58:19;;;;;;;4.57;2.15;;;;;;;7.42;72.36;149166.28;5004597;28;20061;-66
2023/03/30 10:00:59;;;;;;;3.45;2.58;;;;;;;7.19;72.31;149108.72;5020841;28;20326;-66
2023/03/30 10:03:26;;;;;;;6.47;2.15;;;;;;;7.08;74.31;149083.16;5022968;28;20036;-65
2023/03/30 10:06:06;;;;;;;6.53;2.63;;;;;;;7.04;73.46;149071.63;5022816;28;20447;-66
2023/03/30 10:08:42;;;;;;;4.68;2.42;;;;;;;6.97;74.30;149055.03;5020654;28;20079;-66
2023/03/30 10:11:09;;;;;;;6.20;2.60;;;;;;;7.10;74.53;149087.00;5003623;28;20022;-66
2023/03/30 10:13:37;;;;;;;7.63;2.70;;;;;;;6.88;74.45;149031.97;5021738;28;20072;-66
2023/03/30 10:16:25;;;;;;;3.67;2.70;;;;;;;7.00;74.80;149061.44;5022358;28;20306;-65
2023/03/30 10:19:16;;;;;;;6.25;2.58;;;;;;;6.78;75.08;149006.41;5023012;28;20025;-66
2023/03/30 10:21:45;;;;;;;5.32;2.60;;;;;;;6.89;76.17;149034.56;5017897;28;20357;-66
2023/03/30 10:24:14;;;;;;;3.40;2.33;;;;;;;6.80;76.34;149012.81;5022716;28;20482;-65
2023/03/30 10:26:45;;;;;;;3.80;2.33;;;;;;;6.78;77.47;149006.41;5022914;28;20033;-65
2023/03/30 10:29:17;;;;;;;4.05;2.65;;;;;;;6.66;76.93;148977.03;5022776;28;20089;-64
2023/03/30 10:31:47;;;;;;;4.85;3.30;;;;;;;6.70;77.81;148988.53;5012373;28;20049;-66
2023/03/30 10:34:19;;;;;;;5.90;2.90;;;;;;;6.83;77.28;149019.22;5004889;28;20234;-65
2023/03/30 10:36:50;;;;;;;4.43;3.00;;;;;;;6.60;76.65;148961.66;5022600;28;20046;-66
2023/03/30 10:39:28;;;;;;;3.85;2.60;;;;;;;6.60;77.05;148962.97;5022367;28;20060;-66
2023/03/30 10:41:55;;;;;;;4.20;2.55;;;;;;;6.68;76.41;148983.44;5022443;28;20034;-66
2023/03/30 10:44:55;;;;;;;4.40;2.67;;;;;;;6.55;77.75;148950.16;5022340;28;20072;-65
2023/03/30 10:47:39;;;;;;;4.43;2.92;;;;;;;6.69;77.36;148984.69;5018045;28;20042;-66
2023/03/30 10:50:07;;;;;;;3.22;2.40;;;;;;;6.55;78.62;148951.41;5022451;28;20223;-67
2023/03/30 10:52:56;;;;;;;3.53;2.67;;;;;;;6.42;78.48;148918.19;5022441;28;20072;-67
2023/03/30 10:55:31;;;;;;;2.60;2.05;;;;;;;6.29;78.59;148886.25;5011305;28;20250;-65
2023/03/30 10:58:02;;;;;;;4.22;2.60;;;;;;;6.32;79.42;148892.66;5022180;28;20030;-66
2023/03/30 11:00:50;;;;;;;2.88;2.40;;;;;;;6.41;80.06;148914.38;5022090;28;20330;-64
2023/03/30 11:03:15;;;;;;;4.28;2.50;;;;;;;6.44;79.95;148922.03;5021552;28;20049;-62
2023/03/30 11:05:48;;;;;;;5.82;2.80;;;;;;;6.26;79.02;148878.59;5018596;28;20215;-62
2023/03/30 11:08:18;;;;;;;4.00;2.65;;;;;;;6.34;79.93;148899.03;5019664;28;20037;-63
2023/03/30 11:10:47;;;;;;;4.57;2.92;;;;;;;6.29;80.06;148886.25;5001860;28;20049;-64
2023/03/30 11:13:15;;;;;;;4.70;2.70;;;;;;;6.32;80.61;148892.66;5000071;28;20183;-64
2023/03/30 11:15:48;;;;;;;3.38;2.53;;;;;;;6.21;80.94;148865.78;5021944;28;20319;-63
2023/03/30 11:18:42;;;;;;;4.97;2.80;;;;;;;6.38;80.88;148909.28;5021935;28;20034;-63
2023/03/30 11:21:44;;;;;;;5.43;2.80;;;;;;;6.46;80.37;148927.16;5021852;28;20034;-64
2023/03/30 11:24:09;;;;;;;;;;;;;;;6.52;79.72;148943.75;4989202;28;20065;-63
2023/03/30 11:26:48;;;;;;;3.13;2.47;;;;;;;6.43;79.49;148919.47;5022143;28;19930;-62
2023/03/30 11:29:20;;;;;;;4.78;2.92;;;;;;;6.38;80.26;148909.28;5021975;28;20297;-64
2023/03/30 11:32:02;;;;;;;6.95;2.53;;;;;;;6.43;80.76;148919.47;5020404;28;20025;-63
2023/03/30 11:34:50;;;;;;;3.15;2.85;;;;;;;6.48;81.34;148933.53;5021686;28;20026;-64
2023/03/30 11:37:30;;;;;;;4.97;3.35;;;;;;;6.20;80.69;148863.28;5021827;28;20032;-65
2023/03/30 11:40:10;;;;;;;6.60;3.40;;;;;;;6.18;80.08;148859.41;5021690;28;20034;-62
2023/03/30 11:42:36;;;;;;;2.97;2.72;;;;;;;6.02;81.11;148819.78;5021864;28;20121;-63
2023/03/30 11:45:27;;;;;;;4.38;3.30;;;;;;;6.02;82.49;148818.53;5021796;28;20022;-62
2023/03/30 11:48:04;;;;;;;5.55;2.92;;;;;;;5.94;80.29;148798.03;5020553;28;20034;-63